Time;durP1;ratioP1;P1;durP2;ratioP2;P2;SDS_P1;SDS_P2;PMS_P1;PMS_P2;Temp;Humidity;BMP_temperature;BMP_pressure;BME280_temperature;BME280_humidity;BME280_pressure;Samples;Min_cycle;Max_cycle;Signal;HPM_P1;HPM_P2
2022/05/24 00:01:19;;;;;;;1.20;1.07;;;13.70;97.40;;;;;;4196124;28;20183;-69
2022/05/24 00:03:20;;;;;;;1.97;1.37;;;13.70;97.50;;;;;;4195971;28;20203;-70
2022/05/24 00:05:22;;;;;;;1.40;1.30;;;13.70;97.80;;;;;;4195602;28;20800;-70
2022/05/24 00:07:23;;;;;;;3.37;2.03;;;13.70;97.70;;;;;;4195943;28;20186;-69
2022/05/24 00:09:27;;;;;;;1.80;1.50;;;13.70;98.00;;;;;;4196053;28;20655;-70
2022/05/24 00:11:27;;;;;;;2.83;1.70;;;13.60;97.90;;;;;;4195931;28;20282;-70
2022/05/24 00:13:28;;;;;;;1.50;1.40;;;13.60;98.10;;;;;;4196210;28;20180;-69
2022/05/24 00:15:30;;;;;;;1.47;1.10;;;13.50;98.30;;;;;;4195353;28;20185;-70
2022/05/24 00:17:31;;;;;;;1.23;1.13;;;13.50;98.10;;;;;;4195821;28;20286;-70
2022/05/24 00:19:32;;;;;;;1.47;1.10;;;13.50;98.30;;;;;;4195775;28;20175;-70
2022/05/24 00:21:33;;;;;;;1.30;1.20;;;13.50;98.20;;;;;;4195755;28;20215;-70
2022/05/24 00:23:34;;;;;;;1.90;1.13;;;13.50;98.00;;;;;;4195825;28;20180;-70
2022/05/24 00:25:37;;;;;;;1.60;1.13;;;13.50;98.10;;;;;;4194988;28;20179;-70
2022/05/24 00:27:38;;;;;;;2.67;1.23;;;13.50;97.80;;;;;;4195622;28;20175;-69
2022/05/24 00:29:38;;;;;;;1.43;1.33;;;13.50;98.00;;;;;;4195386;28;20685;-70
2022/05/24 00:31:39;;;;;;;1.90;1.73;;;13.50;98.00;;;;;;4195648;28;20266;-69
2022/05/24 00:33:39;;;;;;;1.57;1.20;;;13.40;98.70;;;;;;4195713;28;20226;-70
2022/05/24 00:35:40;;;;;;;1.30;1.07;;;13.40;99.20;;;;;;4195008;28;20226;-70
2022/05/24 00:37:43;;;;;;;2.50;1.63;;;13.40;99.10;;;;;;4195513;28;20287;-70
2022/05/24 00:39:44;;;;;;;1.63;1.33;;;13.40;99.40;;;;;;4195389;28;20259;-70
2022/05/24 00:42:12;;;;;;;2.07;1.50;;;13.50;99.50;;;;;;4194549;28;20270;-70
2022/05/24 00:44:27;;;;;;;1.20;1.10;;;13.50;98.90;;;;;;4192168;28;20191;-70
2022/05/24 00:46:42;;;;;;;1.50;1.30;;;13.50;99.20;;;;;;4194686;28;20171;-70
2022/05/24 00:48:56;;;;;;;1.47;1.20;;;13.50;99.00;;;;;;4195509;28;20622;-70
2022/05/24 00:50:58;;;;;;;1.10;1.00;;;13.40;99.20;;;;;;4195194;28;20180;-70
2022/05/24 00:53:08;;;;;;;1.70;1.07;;;13.40;99.40;;;;;;4195072;28;20193;-70
2022/05/24 00:55:12;;;;;;;2.13;1.37;;;13.50;99.10;;;;;;4194975;28;20225;-70
2022/05/24 00:57:27;;;;;;;2.00;1.00;;;13.60;99.30;;;;;;4194621;28;20203;-70
2022/05/24 00:59:37;;;;;;;0.97;0.93;;;13.70;98.80;;;;;;4195309;28;20156;-70
2022/05/24 01:01:42;;;;;;;1.27;1.17;;;13.60;98.80;;;;;;4195223;28;20163;-70
2022/05/24 01:03:42;;;;;;;1.37;1.10;;;13.60;98.90;;;;;;4195239;28;20639;-70
2022/05/24 01:05:43;;;;;;;1.83;1.20;;;13.50;99.40;;;;;;4194426;28;20176;-70
2022/05/24 01:07:43;;;;;;;3.13;1.13;;;13.50;99.70;;;;;;4194947;28;20539;-70
2022/05/24 01:09:53;;;;;;;1.00;1.00;;;13.50;99.90;;;;;;4194969;28;20597;-70
2022/05/24 01:12:01;;;;;;;3.83;1.40;;;13.60;99.60;;;;;;4194951;28;20570;-70
2022/05/24 01:14:05;;;;;;;1.27;1.17;;;13.70;99.30;;;;;;4194937;28;20163;-70
2022/05/24 01:16:06;;;;;;;1.30;1.20;;;13.70;99.40;;;;;;4194480;28;20245;-70
2022/05/24 01:18:07;;;;;;;1.10;1.00;;;13.70;99.50;;;;;;4194940;28;20203;-69
2022/05/24 01:20:09;;;;;;;1.57;1.20;;;13.70;99.40;;;;;;4195016;28;20175;-69
2022/05/24 01:22:47;;;;;;;1.43;1.23;;;13.70;99.20;;;;;;4194956;28;20191;-70
2022/05/24 01:25:04;;;;;;;1.40;1.13;;;13.60;99.70;;;;;;4194719;28;20176;-69
2022/05/24 01:27:05;;;;;;;1.63;1.27;;;13.60;99.60;;;;;;4194599;28;20184;-69
2022/05/24 01:29:08;;;;;;;1.97;1.40;;;13.50;99.90;;;;;;4194997;28;20187;-69
2022/05/24 01:31:10;;;;;;;1.30;1.17;;;13.50;99.90;;;;;;4194619;28;20175;-70
2022/05/24 01:37:52;;;;;;;2.97;1.30;;;13.40;99.90;;;;;;4194740;28;20207;-68
2022/05/24 01:39:56;;;;;;;1.63;1.20;;;13.40;99.90;;;;;;4194697;28;20190;-70
2022/05/24 01:41:58;;;;;;;2.47;1.40;;;13.40;99.90;;;;;;4194716;28;20257;-70
2022/05/24 01:43:59;;;;;;;1.40;1.30;;;13.50;99.90;;;;;;4194661;28;20184;-70
2022/05/24 01:46:06;;;;;;;2.10;1.30;;;13.50;99.90;;;;;;4193994;28;20187;-70
2022/05/24 01:48:17;;;;;;;1.30;1.20;;;13.50;99.90;;;;;;4194764;28;20187;-70
2022/05/24 01:50:21;;;;;;;3.47;1.30;;;13.50;99.90;;;;;;4194299;28;20246;-69
2022/05/24 01:52:54;;;;;;;1.50;1.20;;;13.40;99.90;;;;;;4195709;28;20580;-69
2022/05/24 01:55:01;;;;;;;4.23;1.40;;;13.30;99.90;;;;;;4197915;28;20174;-69
2022/05/24 01:57:27;;;;;;;1.90;1.13;;;13.20;99.90;;;;;;4197335;28;20533;-69
2022/05/24 01:59:29;;;;;;;4.03;1.47;;;13.00;99.90;;;;;;4188520;28;20227;-70
2022/05/24 02:01:34;;;;;;;2.60;1.50;;;12.90;99.90;;;;;;4197493;28;20180;-69
2022/05/24 02:03:34;;;;;;;2.27;1.50;;;13.00;99.90;;;;;;4197593;28;20244;-69
2022/05/24 02:05:38;;;;;;;3.13;1.50;;;13.10;99.90;;;;;;4197128;28;20271;-70
2022/05/24 02:07:39;;;;;;;1.53;1.43;;;13.10;99.90;;;;;;4197478;28;20215;-70
2022/05/24 02:09:46;;;;;;;2.53;1.57;;;13.30;99.90;;;;;;4197713;28;20180;-70
2022/05/24 02:11:46;;;;;;;1.80;1.67;;;13.30;99.90;;;;;;4197655;28;20199;-69
2022/05/24 02:13:48;;;;;;;2.73;1.60;;;13.30;99.90;;;;;;4197621;28;20193;-69
2022/05/24 02:15:51;;;;;;;1.87;1.60;;;13.20;99.90;;;;;;4196985;28;20693;-69
2022/05/24 02:18:08;;;;;;;3.87;1.90;;;13.10;99.90;;;;;;4197085;28;20302;-69
2022/05/24 02:20:11;;;;;;;2.20;1.80;;;13.10;99.90;;;;;;4197467;28;20186;-70
2022/05/24 02:22:24;;;;;;;2.30;1.80;;;13.00;99.90;;;;;;4197315;28;20204;-70
2022/05/24 02:24:25;;;;;;;1.90;1.80;;;13.00;99.90;;;;;;4197434;28;20183;-69
2022/05/24 02:26:28;;;;;;;1.80;1.70;;;13.00;99.90;;;;;;4196787;28;20203;-70
2022/05/24 02:28:30;;;;;;;1.80;1.70;;;13.00;99.90;;;;;;4197296;28;20184;-70
2022/05/24 02:30:31;;;;;;;1.67;1.47;;;13.00;99.90;;;;;;4197522;28;20187;-69
2022/05/24 02:32:31;;;;;;;1.90;1.70;;;13.00;99.90;;;;;;4197465;28;20593;-69
2022/05/24 02:34:34;;;;;;;2.57;1.70;;;13.10;99.90;;;;;;4197125;28;20183;-70
2022/05/24 02:36:35;;;;;;;2.73;1.50;;;13.10;99.90;;;;;;4195150;28;20199;-69
2022/05/24 02:38:36;;;;;;;1.87;1.60;;;13.10;99.90;;;;;;4190561;28;20223;-70
2022/05/24 02:42:56;;;;;;;3.17;1.63;;;13.20;99.90;;;;;;4197050;28;20230;-70
2022/05/24 02:44:56;;;;;;;1.50;1.40;;;13.20;99.90;;;;;;4196867;28;20555;-70
2022/05/24 02:46:57;;;;;;;2.90;1.70;;;13.20;99.90;;;;;;4196594;28;20180;-69
2022/05/24 02:48:57;;;;;;;1.50;1.40;;;13.20;99.90;;;;;;4197351;28;20266;-70
2022/05/24 02:50:58;;;;;;;3.80;1.50;;;13.20;99.90;;;;;;4197272;28;20205;-70
2022/05/24 02:52:58;;;;;;;1.53;1.43;;;13.20;99.90;;;;;;4197300;28;20223;-70
2022/05/24 02:54:59;;;;;;;4.40;1.80;;;13.20;99.90;;;;;;4197057;28;20215;-69
2022/05/24 02:57:01;;;;;;;1.60;1.50;;;13.20;99.90;;;;;;4196709;28;20519;-69
2022/05/24 02:59:02;;;;;;;2.13;1.80;;;13.10;99.90;;;;;;4196063;28;20241;-69
2022/05/24 03:01:09;;;;;;;1.40;1.30;;;13.10;99.90;;;;;;4195317;28;20257;-70
2022/05/24 03:03:09;;;;;;;3.03;1.50;;;13.00;99.90;;;;;;4197192;28;20306;-70
2022/05/24 03:05:12;;;;;;;3.50;1.80;;;12.90;99.90;;;;;;4196208;28;20211;-70
2022/05/24 03:09:35;;;;;;;1.70;1.60;;;12.90;99.90;;;;;;4196794;28;20167;-70
2022/05/24 03:16:27;;;;;;;3.83;1.60;;;12.90;99.90;;;;;;4172893;28;20198;-70
2022/05/24 03:18:28;;;;;;;4.07;1.67;;;13.00;99.90;;;;;;4196782;28;20642;-70
2022/05/24 03:20:29;;;;;;;2.23;1.50;;;13.00;99.90;;;;;;4197065;28;20215;-70
2022/05/24 03:22:30;;;;;;;1.37;1.27;;;13.00;99.90;;;;;;4196793;28;20844;-70
2022/05/24 03:24:30;;;;;;;2.90;1.40;;;13.00;99.50;;;;;;4196960;28;20236;-70
2022/05/24 03:26:31;;;;;;;1.47;1.30;;;13.10;99.30;;;;;;4196263;28;20234;-70
2022/05/24 03:28:32;;;;;;;1.90;1.30;;;13.00;99.20;;;;;;4196745;28;20190;-70
2022/05/24 03:30:37;;;;;;;1.40;1.30;;;13.00;99.40;;;;;;4196589;28;20213;-70
2022/05/24 03:32:38;;;;;;;3.57;1.27;;;12.90;99.70;;;;;;4196137;28;20241;-70
2022/05/24 03:34:40;;;;;;;1.50;1.33;;;12.70;99.90;;;;;;4196421;28;20254;-70
2022/05/24 03:36:40;;;;;;;1.57;1.47;;;12.70;99.90;;;;;;4196034;28;20998;-69
2022/05/24 03:38:40;;;;;;;1.80;1.57;;;12.70;99.90;;;;;;4196295;28;20199;-69
2022/05/24 03:40:41;;;;;;;3.60;1.90;;;12.60;99.90;;;;;;4196388;28;20658;-69
2022/05/24 03:42:42;;;;;;;1.97;1.60;;;12.50;99.90;;;;;;4196384;28;20210;-69
2022/05/24 03:44:42;;;;;;;3.93;1.67;;;12.50;99.90;;;;;;4196390;28;20176;-69
2022/05/24 03:46:43;;;;;;;5.93;1.70;;;12.50;99.90;;;;;;4195835;28;20760;-69
2022/05/24 03:48:44;;;;;;;1.60;1.50;;;12.50;99.90;;;;;;4196492;28;20183;-69
2022/05/24 03:50:44;;;;;;;1.40;1.30;;;12.40;99.90;;;;;;4195818;28;20688;-69
2022/05/24 03:52:45;;;;;;;1.63;1.20;;;12.40;99.90;;;;;;4196336;28;20690;-69
2022/05/24 03:54:45;;;;;;;1.63;1.13;;;12.50;99.90;;;;;;4196450;28;20176;-69
2022/05/24 03:59:05;;;;;;;1.30;1.20;;;12.50;98.10;;;;;;4196533;28;20214;-69
2022/05/24 04:01:06;;;;;;;1.57;1.20;;;12.50;98.20;;;;;;4196212;28;20183;-69
2022/05/24 04:03:07;;;;;;;1.30;1.20;;;12.60;98.30;;;;;;4196257;28;20219;-69
2022/05/24 04:05:08;;;;;;;1.77;1.30;;;12.60;97.80;;;;;;4196135;28;20171;-69
2022/05/24 04:07:09;;;;;;;3.63;1.20;;;12.60;97.80;;;;;;4195631;28;20187;-69
2022/05/24 04:09:10;;;;;;;3.70;1.10;;;12.70;96.90;;;;;;4196083;28;20192;-70
2022/05/24 04:11:11;;;;;;;2.93;1.00;;;12.90;96.30;;;;;;4196174;28;20190;-69
2022/05/24 04:13:12;;;;;;;4.80;1.30;;;13.00;95.90;;;;;;4195898;28;20207;-69
2022/05/24 04:15:14;;;;;;;1.30;1.17;;;12.90;95.80;;;;;;4195148;28;20210;-69
2022/05/24 04:17:15;;;;;;;3.30;1.20;;;12.80;96.20;;;;;;4194959;28;20204;-69
2022/05/24 04:19:15;;;;;;;2.27;1.10;;;12.80;96.00;;;;;;4195967;28;20184;-69
2022/05/24 04:21:16;;;;;;;1.83;1.10;;;12.80;96.10;;;;;;4195901;28;20678;-69
2022/05/24 04:23:17;;;;;;;1.10;1.00;;;12.80;96.20;;;;;;4195732;28;20202;-69
2022/05/24 04:25:18;;;;;;;1.30;1.20;;;12.90;96.40;;;;;;4195617;28;20183;-69
2022/05/24 04:27:19;;;;;;;2.20;1.10;;;13.00;95.50;;;;;;4195275;28;20180;-69
2022/05/24 04:29:19;;;;;;;1.23;1.03;;;13.10;95.20;;;;;;4195679;28;20210;-69
2022/05/24 04:31:20;;;;;;;4.70;1.30;;;13.20;95.20;;;;;;4195660;28;20271;-69
2022/05/24 04:33:20;;;;;;;6.70;2.40;;;13.10;95.80;;;;;;4195276;28;20207;-69
2022/05/24 04:35:21;;;;;;;4.97;1.90;;;13.10;95.40;;;;;;4194847;28;20278;-69
2022/05/24 04:37:21;;;;;;;6.00;2.27;;;13.10;95.70;;;;;;4195309;28;20211;-69
2022/05/24 04:39:22;;;;;;;7.50;1.97;;;13.00;95.60;;;;;;4195330;28;20192;-69
2022/05/24 04:43:42;;;;;;;5.70;1.77;;;13.00;96.20;;;;;;4195496;28;20190;-69
2022/05/24 04:45:42;;;;;;;5.03;1.30;;;13.00;95.80;;;;;;4209925;28;20253;-69
2022/05/24 04:47:43;;;;;;;2.47;1.03;;;13.00;96.00;;;;;;4195375;28;20199;-69
2022/05/24 04:49:50;;;;;;;2.03;1.00;;;13.20;95.80;;;;;;4195424;28;20232;-69
2022/05/24 04:51:55;;;;;;;3.07;1.33;;;13.30;95.30;;;;;;4195362;28;20286;-69
2022/05/24 04:53:55;;;;;;;3.73;1.50;;;13.40;95.20;;;;;;4194045;28;20569;-69
2022/05/24 04:55:56;;;;;;;2.80;1.00;;;13.40;95.10;;;;;;4194308;28;20191;-69
2022/05/24 04:57:57;;;;;;;4.70;2.20;;;13.50;94.40;;;;;;4194995;28;20211;-69
2022/05/24 04:59:57;;;;;;;6.53;2.40;;;13.60;94.10;;;;;;4195165;28;20278;-69
2022/05/24 05:01:58;;;;;;;7.07;2.53;;;13.60;93.90;;;;;;4194849;28;20191;-69
2022/05/24 05:03:59;;;;;;;7.70;2.57;;;13.70;93.90;;;;;;4195067;28;20266;-69
2022/05/24 05:05:59;;;;;;;3.70;1.60;;;13.90;93.30;;;;;;4194332;28;20210;-69
2022/05/24 05:07:59;;;;;;;6.10;1.83;;;13.90;92.70;;;;;;4195050;28;20192;-69
2022/05/24 05:10:00;;;;;;;1.27;0.93;;;13.90;92.60;;;;;;4195097;28;20595;-69
2022/05/24 05:12:06;;;;;;;4.13;2.80;;;13.80;91.20;;;;;;4194939;28;20211;-69
2022/05/24 05:14:08;;;;;;;1.43;1.13;;;13.70;91.40;;;;;;4195111;28;20186;-69
2022/05/24 05:16:09;;;;;;;2.33;1.23;;;13.70;92.10;;;;;;4194453;28;20183;-69
2022/05/24 05:18:11;;;;;;;1.90;1.20;;;13.60;92.20;;;;;;4193520;28;20683;-69
2022/05/24 05:20:12;;;;;;;5.43;1.30;;;13.60;92.20;;;;;;4193619;28;20731;-70
2022/05/24 05:22:14;;;;;;;5.57;1.50;;;13.60;92.60;;;;;;4194898;28;20537;-69
2022/05/24 05:24:15;;;;;;;5.27;1.77;;;13.60;92.80;;;;;;4194906;28;20249;-70
2022/05/24 05:26:15;;;;;;;5.10;1.87;;;13.50;93.90;;;;;;4194202;28;20184;-69
2022/05/24 05:28:18;;;;;;;6.63;1.50;;;13.50;93.10;;;;;;4194199;28;20241;-69
2022/05/24 05:32:38;;;;;;;6.00;2.57;;;13.50;94.20;;;;;;4194814;28;20269;-70
2022/05/24 05:34:39;;;;;;;2.67;1.40;;;13.50;94.50;;;;;;4194668;28;20250;-70
2022/05/24 05:36:39;;;;;;;2.57;1.40;;;13.50;93.90;;;;;;4194828;28;20187;-69
2022/05/24 05:38:47;;;;;;;3.43;1.40;;;13.40;94.30;;;;;;4194806;28;20204;-69
2022/05/24 05:40:52;;;;;;;2.67;1.10;;;13.50;94.00;;;;;;4195146;28;20176;-69
2022/05/24 05:42:53;;;;;;;4.70;1.70;;;13.40;93.30;;;;;;4194996;28;20283;-69
2022/05/24 05:44:54;;;;;;;3.07;1.30;;;13.40;93.80;;;;;;4194836;28;20182;-69
2022/05/24 05:46:55;;;;;;;3.10;1.27;;;13.40;94.10;;;;;;4194259;28;20660;-70
2022/05/24 05:48:55;;;;;;;2.93;1.10;;;13.60;93.50;;;;;;4194762;28;20179;-70
2022/05/24 05:50:56;;;;;;;2.70;1.30;;;13.70;92.70;;;;;;4194737;28;20180;-69
2022/05/24 05:52:56;;;;;;;2.00;1.00;;;13.70;92.70;;;;;;4194633;28;20635;-69
2022/05/24 05:54:57;;;;;;;2.33;1.20;;;13.70;92.70;;;;;;4194502;28;20180;-70
2022/05/24 05:56:57;;;;;;;1.60;1.10;;;13.80;92.60;;;;;;4193894;28;20175;-70
2022/05/24 05:58:58;;;;;;;1.77;1.00;;;13.80;92.20;;;;;;4194831;28;20179;-69
2022/05/24 06:01:00;;;;;;;2.70;1.10;;;13.70;92.40;;;;;;4194757;28;20183;-70
2022/05/24 06:03:00;;;;;;;4.30;1.10;;;13.70;92.40;;;;;;4194631;28;21060;-70
2022/05/24 06:05:02;;;;;;;2.30;1.00;;;13.70;92.40;;;;;;4194413;28;20176;-70
2022/05/24 06:07:03;;;;;;;2.00;0.90;;;13.80;92.50;;;;;;4194189;28;20195;-69
2022/05/24 06:09:04;;;;;;;1.20;1.10;;;13.80;92.40;;;;;;4194607;28;20172;-69
2022/05/24 06:11:04;;;;;;;1.53;1.40;;;13.60;92.90;;;;;;4194522;28;20179;-69
2022/05/24 06:13:05;;;;;;;2.37;1.20;;;13.40;93.80;;;;;;4194828;28;20677;-70
2022/05/24 06:15:07;;;;;;;5.30;1.10;;;13.40;94.90;;;;;;4194389;28;20233;-69
2022/05/24 06:17:08;;;;;;;2.20;1.73;;;13.50;95.30;;;;;;4193947;28;20187;-70
2022/05/24 06:19:08;;;;;;;1.23;0.90;;;13.50;94.50;;;;;;4193044;28;20172;-69
2022/05/24 06:21:09;;;;;;;1.97;1.33;;;13.60;95.10;;;;;;4194438;28;20662;-70
2022/05/24 06:23:10;;;;;;;1.20;1.00;;;13.70;94.80;;;;;;4194560;28;20195;-69
2022/05/24 06:25:11;;;;;;;3.90;1.27;;;13.60;95.90;;;;;;4194191;28;20839;-70
2022/05/24 06:27:11;;;;;;;1.80;1.10;;;13.50;95.40;;;;;;4194005;28;20190;-69
2022/05/24 06:29:12;;;;;;;1.40;0.97;;;13.50;95.70;;;;;;4194514;28;20932;-70
2022/05/24 06:31:12;;;;;;;0.77;0.77;;;13.20;96.20;;;;;;4194328;28;20249;-69
2022/05/24 06:33:13;;;;;;;0.73;0.73;;;13.10;95.80;;;;;;4194085;28;20639;-69
2022/05/24 06:35:14;;;;;;;1.33;1.23;;;12.60;95.60;;;;;;4193970;28;20635;-69
2022/05/24 06:37:15;;;;;;;0.60;0.60;;;12.20;96.10;;;;;;4193537;28;20210;-69
2022/05/24 06:39:16;;;;;;;0.53;0.53;;;12.10;98.20;;;;;;4195080;28;20172;-69
2022/05/24 06:41:16;;;;;;;0.73;0.70;;;11.80;96.60;;;;;;4197412;28;20183;-69
2022/05/24 06:43:17;;;;;;;0.50;0.50;;;11.70;98.00;;;;;;4197153;28;20204;-68
2022/05/24 06:45:17;;;;;;;0.60;0.60;;;11.60;97.50;;;;;;4197050;28;20183;-68
2022/05/24 06:47:18;;;;;;;0.80;0.60;;;11.60;97.10;;;;;;4196805;28;20203;-68
2022/05/24 06:49:18;;;;;;;2.70;2.60;;;11.50;97.70;;;;;;4197196;28;20176;-70
2022/05/24 06:51:21;;;;;;;0.90;0.60;;;11.30;96.20;;;;;;4197139;28;20183;-69
2022/05/24 06:53:21;;;;;;;0.50;0.50;;;11.20;97.30;;;;;;4197205;28;20219;-70
2022/05/24 06:55:23;;;;;;;1.97;0.70;;;11.00;97.80;;;;;;4196402;28;20175;-70
2022/05/24 06:57:24;;;;;;;0.80;0.80;;;11.10;98.20;;;;;;4196947;28;20556;-70
2022/05/24 07:04:03;;;;;;;0.57;0.57;;;11.50;97.40;;;;;;4197182;28;20661;-70
2022/05/24 07:06:05;;;;;;;0.70;0.70;;;11.60;97.00;;;;;;4196027;28;20188;-70
2022/05/24 07:08:05;;;;;;;1.03;0.70;;;11.90;96.50;;;;;;4196839;28;20174;-69
2022/05/24 07:10:09;;;;;;;0.60;0.60;;;11.80;96.10;;;;;;4196907;28;20187;-70
2022/05/24 07:12:09;;;;;;;1.57;0.57;;;11.70;95.30;;;;;;4196668;28;20199;-70
2022/05/24 07:14:10;;;;;;;0.83;0.70;;;11.50;96.60;;;;;;4195435;28;20563;-69
2022/05/24 07:16:11;;;;;;;0.50;0.50;;;11.50;97.10;;;;;;4196080;28;20212;-69
2022/05/24 07:18:11;;;;;;;0.97;0.50;;;11.60;97.30;;;;;;4196288;28;20725;-70
2022/05/24 07:20:12;;;;;;;0.57;0.57;;;11.60;96.90;;;;;;4196539;28;20187;-70
2022/05/24 07:22:13;;;;;;;0.40;0.40;;;11.50;96.30;;;;;;4196299;28;20203;-70
2022/05/24 07:24:14;;;;;;;0.60;0.60;;;11.70;96.80;;;;;;4196802;28;20715;-69
2022/05/24 07:26:18;;;;;;;0.50;0.50;;;11.70;94.30;;;;;;4196169;28;20172;-67
2022/05/24 07:28:20;;;;;;;0.40;0.40;;;12.10;93.70;;;;;;4196618;28;20191;-68
2022/05/24 07:30:21;;;;;;;0.60;0.60;;;12.20;94.20;;;;;;4196630;28;20229;-68
2022/05/24 07:32:21;;;;;;;0.60;0.60;;;12.40;93.70;;;;;;4196667;28;20203;-67
2022/05/24 07:34:22;;;;;;;1.97;1.87;;;12.40;92.40;;;;;;4196611;28;20176;-68
2022/05/24 07:36:22;;;;;;;0.50;0.50;;;12.20;92.80;;;;;;4196041;28;20179;-67
2022/05/24 07:38:23;;;;;;;0.50;0.50;;;12.30;93.50;;;;;;4196315;28;20770;-68
2022/05/24 07:47:22;;;;;;;0.50;0.50;;;12.60;91.50;;;;;;4196758;28;20217;-68
2022/05/24 07:49:23;;;;;;;1.80;1.70;;;12.60;90.70;;;;;;4196377;28;20195;-68
2022/05/24 07:51:23;;;;;;;0.50;0.50;;;12.70;90.80;;;;;;4196277;28;20191;-68
2022/05/24 07:53:24;;;;;;;2.10;1.93;;;12.60;90.20;;;;;;4196240;28;20310;-68
2022/05/24 07:55:25;;;;;;;2.07;1.97;;;12.70;89.60;;;;;;4195515;28;20532;-68
2022/05/24 07:57:26;;;;;;;1.50;1.40;;;12.60;87.80;;;;;;4196252;28;20207;-68
2022/05/24 07:59:27;;;;;;;1.37;1.37;;;12.60;87.40;;;;;;4196213;28;20168;-67
2022/05/24 08:01:27;;;;;;;0.53;0.53;;;12.60;88.30;;;;;;4195307;28;20675;-67
2022/05/24 08:03:28;;;;;;;3.37;3.17;;;12.40;89.30;;;;;;4196144;28;20776;-68
2022/05/24 08:05:32;;;;;;;0.67;0.67;;;12.30;85.40;;;;;;4195349;28;20168;-68
2022/05/24 08:07:33;;;;;;;0.60;0.60;;;12.40;86.80;;;;;;4196053;28;20881;-67
2022/05/24 08:09:33;;;;;;;0.60;0.60;;;12.20;86.10;;;;;;4211197;28;20167;-67
2022/05/24 08:11:34;;;;;;;0.83;0.83;;;12.40;87.40;;;;;;4195702;28;20651;-68
2022/05/24 08:13:35;;;;;;;0.70;0.70;;;12.50;85.30;;;;;;4196118;28;20206;-68
2022/05/24 08:15:36;;;;;;;0.60;0.60;;;12.40;84.50;;;;;;4195293;28;20216;-68
2022/05/24 08:17:37;;;;;;;1.40;1.40;;;12.40;84.50;;;;;;4195509;28;20207;-68
2022/05/24 08:19:38;;;;;;;2.90;2.70;;;12.50;84.10;;;;;;4195731;28;20176;-68
2022/05/24 08:21:38;;;;;;;0.60;0.60;;;12.60;80.20;;;;;;4195631;28;20700;-68
2022/05/24 08:23:39;;;;;;;1.77;1.10;;;12.60;80.80;;;;;;4195524;28;20174;-67
2022/05/24 08:25:40;;;;;;;0.60;0.60;;;12.70;79.80;;;;;;4195071;28;20175;-68
2022/05/24 08:27:41;;;;;;;0.97;0.90;;;12.60;82.60;;;;;;4195723;28;20531;-68
2022/05/24 08:29:42;;;;;;;1.63;1.17;;;12.70;78.90;;;;;;4195769;28;20788;-68
2022/05/24 08:31:42;;;;;;;0.80;0.80;;;12.90;78.30;;;;;;4195555;28;20164;-69
2022/05/24 08:33:44;;;;;;;0.93;0.93;;;12.90;77.30;;;;;;4195399;28;20255;-68
2022/05/24 08:35:45;;;;;;;0.87;0.50;;;13.10;76.20;;;;;;4194805;28;20205;-68
2022/05/24 08:37:46;;;;;;;1.50;0.70;;;13.20;75.50;;;;;;4195345;28;20211;-68
2022/05/24 08:39:46;;;;;;;0.63;0.60;;;13.20;74.90;;;;;;4195206;28;20263;-68
2022/05/24 08:42:18;;;;;;;2.37;2.27;;;13.40;73.10;;;;;;4195236;28;20253;-68
2022/05/24 08:49:26;;;;;;;1.30;1.30;;;13.70;72.20;;;;;;4195260;28;20183;-68
2022/05/24 08:52:00;;;;;;;2.80;1.10;;;13.80;69.70;;;;;;4195277;28;20179;-68
2022/05/24 08:54:13;;;;;;;2.57;1.67;;;13.80;71.20;;;;;;4150524;28;20237;-68
2022/05/24 08:56:24;;;;;;;1.00;1.00;;;14.10;69.10;;;;;;4194526;28;20172;-68
2022/05/24 08:58:31;;;;;;;1.83;0.90;;;14.20;69.70;;;;;;4195202;28;20925;-68
2022/05/24 09:00:38;;;;;;;0.57;0.57;;;14.20;69.80;;;;;;4194915;28;20813;-68
2022/05/24 09:02:45;;;;;;;1.27;0.80;;;14.90;69.90;;;;;;4194695;28;20322;-68
2022/05/24 09:04:45;;;;;;;2.07;0.70;;;14.90;67.10;;;;;;4193785;28;20179;-69
2022/05/24 09:06:56;;;;;;;1.07;1.07;;;15.00;66.80;;;;;;4194328;28;20179;-68
2022/05/24 09:09:09;;;;;;;0.90;0.60;;;15.20;64.80;;;;;;4195036;28;20654;-69
2022/05/24 09:11:19;;;;;;;0.83;0.83;;;15.30;65.00;;;;;;4194971;28;20171;-68
2022/05/24 09:13:37;;;;;;;0.70;0.70;;;15.60;62.10;;;;;;4194933;28;20238;-68
2022/05/24 09:16:15;;;;;;;1.00;0.87;;;15.40;62.60;;;;;;4193945;28;20188;-68
2022/05/24 09:18:40;;;;;;;3.13;2.93;;;15.10;61.10;;;;;;4194697;28;20269;-68
2022/05/24 09:20:44;;;;;;;0.80;0.80;;;14.60;62.60;;;;;;4195235;28;20568;-68
2022/05/24 09:22:44;;;;;;;6.60;6.27;;;14.90;63.70;;;;;;4195636;28;20717;-68
2022/05/24 09:24:48;;;;;;;1.73;0.60;;;14.60;62.70;;;;;;4195549;28;20167;-68
2022/05/24 09:27:10;;;;;;;2.03;1.53;;;14.40;64.20;;;;;;4195130;28;20650;-68
2022/05/24 09:29:14;;;;;;;5.50;1.57;;;14.70;61.40;;;;;;4195526;28;20629;-69
2022/05/24 09:31:41;;;;;;;1.77;0.90;;;14.50;62.90;;;;;;4195271;28;20179;-68
2022/05/24 09:33:42;;;;;;;1.53;1.47;;;14.60;60.20;;;;;;4196152;28;20733;-67
2022/05/24 09:35:42;;;;;;;1.07;1.00;;;14.80;60.20;;;;;;4195536;28;20202;-68
2022/05/24 09:38:07;;;;;;;1.10;1.10;;;14.80;61.40;;;;;;4195340;28;20293;-68
2022/05/24 09:40:21;;;;;;;1.90;1.80;;;15.30;61.20;;;;;;4195262;28;20178;-67
2022/05/24 09:42:27;;;;;;;0.70;0.70;;;15.00;61.40;;;;;;4195434;28;20199;-67
2022/05/24 09:44:41;;;;;;;1.20;1.10;;;15.40;62.10;;;;;;4195379;28;20317;-68
2022/05/24 09:46:42;;;;;;;0.80;0.80;;;15.40;60.50;;;;;;4194786;28;20164;-67
2022/05/24 09:48:59;;;;;;;3.33;3.10;;;15.30;61.00;;;;;;4195317;28;20186;-68
2022/05/24 09:51:03;;;;;;;0.70;0.70;;;15.40;59.20;;;;;;4195228;28;20214;-67
2022/05/24 09:53:08;;;;;;;0.70;0.70;;;15.40;60.00;;;;;;4193979;28;20207;-68
2022/05/24 09:55:10;;;;;;;1.13;0.93;;;15.70;57.80;;;;;;4195067;28;20179;-67
2022/05/24 09:57:11;;;;;;;1.30;0.70;;;15.90;58.10;;;;;;4194613;28;20183;-69
2022/05/24 09:59:23;;;;;;;2.23;0.73;;;15.70;57.90;;;;;;4195924;28;20171;-68
2022/05/24 10:01:35;;;;;;;0.70;0.70;;;15.70;58.30;;;;;;4193913;28;20184;-68
2022/05/24 10:03:41;;;;;;;0.87;0.60;;;16.00;58.90;;;;;;4195344;28;20642;-68
2022/05/24 10:05:42;;;;;;;0.87;0.80;;;16.30;54.50;;;;;;4194345;28;20175;-68
2022/05/24 10:07:58;;;;;;;1.13;0.80;;;16.40;53.60;;;;;;4194568;28;20195;-68
2022/05/24 10:10:10;;;;;;;0.60;0.60;;;16.70;54.20;;;;;;4195181;28;20165;-68
2022/05/24 10:12:10;;;;;;;2.13;0.97;;;17.00;52.70;;;;;;4195080;28;20215;-68
2022/05/24 10:14:33;;;;;;;1.50;1.40;;;16.90;52.80;;;;;;4197588;28;20923;-69
2022/05/24 10:16:40;;;;;;;0.80;0.60;;;16.10;56.10;;;;;;4197568;28;20215;-69
2022/05/24 10:19:11;;;;;;;1.20;0.60;;;16.30;52.40;;;;;;4198193;28;20906;-68
2022/05/24 10:21:24;;;;;;;0.67;0.53;;;16.50;54.10;;;;;;4198125;28;20257;-69
2022/05/24 10:23:40;;;;;;;1.33;1.23;;;16.30;52.90;;;;;;4198589;28;20746;-68
2022/05/24 10:26:11;;;;;;;0.93;0.93;;;16.60;52.20;;;;;;4197728;28;20171;-68
2022/05/24 10:28:37;;;;;;;2.10;0.80;;;16.30;53.20;;;;;;4198094;28;20195;-68
2022/05/24 10:30:56;;;;;;;0.87;0.77;;;16.60;54.10;;;;;;4198128;28;20218;-67
2022/05/24 10:39:02;;;;;;;1.20;1.10;;;16.90;51.90;;;;;;4198322;28;20277;-67
2022/05/24 10:41:15;;;;;;;1.07;1.07;;;16.30;52.80;;;;;;4198229;28;20176;-67
2022/05/24 10:43:34;;;;;;;0.70;0.60;;;16.60;54.50;;;;;;4197974;28;20192;-67
2022/05/24 10:45:52;;;;;;;0.70;0.70;;;16.80;53.00;;;;;;4197002;28;20175;-67
2022/05/24 10:48:03;;;;;;;1.43;1.33;;;16.80;54.70;;;;;;4197915;28;20164;-67
2022/05/24 10:50:09;;;;;;;2.10;0.73;;;16.80;54.50;;;;;;4197862;28;20196;-67
2022/05/24 10:52:27;;;;;;;1.40;1.30;;;17.30;51.20;;;;;;4197628;28;20221;-67
2022/05/24 10:55:09;;;;;;;2.23;2.13;;;17.00;53.70;;;;;;4197713;28;20544;-67
2022/05/24 10:57:18;;;;;;;1.93;0.80;;;16.60;54.50;;;;;;4197244;28;20210;-67
2022/05/24 10:59:37;;;;;;;1.27;0.80;;;16.20;54.50;;;;;;4196499;28;20205;-68
2022/05/24 11:01:44;;;;;;;1.00;0.80;;;17.10;52.60;;;;;;4197466;28;20180;-68
2022/05/24 11:03:49;;;;;;;2.23;0.90;;;18.00;51.30;;;;;;4197447;28;20191;-67
2022/05/24 11:05:56;;;;;;;2.57;0.80;;;18.40;49.60;;;;;;4196998;28;20232;-67
2022/05/24 11:08:20;;;;;;;1.13;1.03;;;18.30;48.30;;;;;;4197315;28;20794;-67
2022/05/24 11:10:27;;;;;;;0.97;0.93;;;17.80;47.90;;;;;;4197689;28;20168;-67
2022/05/24 11:12:30;;;;;;;1.67;1.37;;;17.50;48.20;;;;;;4197232;28;20345;-67
2022/05/24 11:14:50;;;;;;;3.27;1.37;;;17.70;49.80;;;;;;4197322;28;20245;-67
2022/05/24 11:16:52;;;;;;;1.47;0.90;;;18.40;48.10;;;;;;4196345;28;20198;-67
2022/05/24 11:18:53;;;;;;;1.33;0.90;;;19.40;47.40;;;;;;4197295;28;20230;-68
2022/05/24 11:21:17;;;;;;;1.57;1.33;;;19.80;44.80;;;;;;4197415;28;20256;-67
2022/05/24 11:23:24;;;;;;;1.23;1.13;;;20.00;42.60;;;;;;4197640;28;20200;-68
2022/05/24 11:25:27;;;;;;;1.10;1.07;;;20.50;41.80;;;;;;4196014;28;20258;-67
2022/05/24 11:27:32;;;;;;;2.77;2.67;;;20.60;39.10;;;;;;4195174;28;20188;-67
2022/05/24 11:29:37;;;;;;;0.87;0.87;;;20.80;37.70;;;;;;4196571;28;20163;-67
2022/05/24 11:31:46;;;;;;;1.70;1.60;;;20.60;38.50;;;;;;4196579;28;20257;-67
2022/05/24 11:33:48;;;;;;;1.50;0.90;;;20.40;37.00;;;;;;4196359;28;20167;-67